Time;durP1;ratioP1;P1;durP2;ratioP2;P2;SDS_P1;SDS_P2;PMS_P1;PMS_P2;Temp;Humidity;BMP_temperature;BMP_pressure;BME280_temperature;BME280_humidity;BME280_pressure;Samples;Min_cycle;Max_cycle;Signal;HPM_P1;HPM_P2
2021/06/09 00:01:55;;;;;;;;;32.33;31.33;;;;;18.98;83.84;100682.44;5045812;28;8976;-77
2021/06/09 00:04:50;;;;;;;;;34.75;32.50;;;;;18.92;84.07;100674.78;5034112;28;8947;-76
2021/06/09 00:07:33;;;;;;;;;30.00;29.33;;;;;18.76;85.12;100669.44;5034303;28;8838;-77
2021/06/09 00:10:28;;;;;;;;;29.00;29.00;;;;;18.77;85.47;100673.84;5035693;28;8936;-78
2021/06/09 00:13:30;;;;;;;;;24.75;24.75;;;;;18.69;85.48;100663.78;5021233;28;8949;-77
2021/06/09 00:16:25;;;;;;;;;30.50;30.00;;;;;18.72;85.28;100658.22;5034714;28;8863;-77
2021/06/09 00:19:24;;;;;;;;;28.50;28.50;;;;;18.78;85.18;100658.66;5040843;28;9588;-77
2021/06/09 00:22:20;;;;;;;;;24.50;23.25;;;;;18.76;84.77;100663.84;5079322;28;8914;-77
2021/06/09 00:25:17;;;;;;;;;26.25;26.00;;;;;18.74;85.12;100661.44;5058870;28;8913;-77
2021/06/09 00:28:12;;;;;;;;;23.75;23.75;;;;;18.70;85.15;100656.97;5054006;28;8840;-78
2021/06/09 00:31:08;;;;;;;;;27.50;27.50;;;;;18.61;85.72;100649.69;5053677;28;8832;-78
2021/06/09 00:34:04;;;;;;;;;25.00;25.00;;;;;18.62;85.93;100645.69;5053595;28;8820;-77
2021/06/09 00:36:59;;;;;;;;;31.25;30.25;;;;;18.44;86.50;100646.72;5047624;28;8951;-77
2021/06/09 00:39:55;;;;;;;;;28.75;28.75;;;;;18.55;86.45;100648.41;5053615;28;8832;-78
2021/06/09 00:43:11;;;;;;;;;27.00;26.75;;;;;18.66;86.22;100651.38;5046050;28;8840;-78
2021/06/09 00:46:09;;;;;;;;;29.25;28.00;;;;;18.58;86.64;100647.66;5048389;28;8836;-78
2021/06/09 00:49:06;;;;;;;;;25.75;25.75;;;;;18.67;86.26;100650.16;5047645;28;8852;-77
2021/06/09 00:52:02;;;;;;;;;30.50;30.00;;;;;18.84;85.25;100645.91;5068357;28;8824;-78
2021/06/09 00:54:57;;;;;;;;;27.75;27.75;;;;;18.71;85.24;100647.38;5073986;28;8842;-77
2021/06/09 00:57:31;;;;;;;;;29.00;29.00;;;;;18.71;85.43;100639.81;5072503;28;8858;-77
2021/06/09 01:00:26;;;;;;;;;23.50;21.50;;;;;18.83;85.18;100641.50;5075467;28;8929;-77
2021/06/09 01:03:22;;;;;;;;;21.75;21.75;;;;;18.86;85.83;100641.53;5074125;28;8824;-78
2021/06/09 01:06:19;;;;;;;;;19.00;19.00;;;;;19.17;85.63;100634.53;5073892;28;8836;-77
2021/06/09 01:09:15;;;;;;;;;20.50;19.50;;;;;19.45;84.32;100636.69;5073864;28;8850;-77
2021/06/09 01:12:11;;;;;;;;;20.50;19.50;;;;;19.39;83.66;100631.84;5073659;28;8824;-77
2021/06/09 01:15:08;;;;;;;;;21.00;21.00;;;;;19.50;83.93;100631.91;5073738;28;8824;-77
2021/06/09 01:18:04;;;;;;;;;17.25;17.25;;;;;19.80;83.18;100632.50;5073450;28;8920;-77
2021/06/09 01:21:01;;;;;;;;;15.25;15.25;;;;;20.24;81.85;100637.84;5059848;28;8880;-77
2021/06/09 01:23:58;;;;;;;;;18.00;17.00;;;;;19.80;82.63;100635.28;5072531;28;8922;-77
2021/06/09 01:26:53;;;;;;;;;16.75;15.75;;;;;19.91;83.02;100641.72;5071914;28;8818;-77
2021/06/09 01:29:21;;;;;;;;;17.25;17.25;;;;;19.85;83.07;100642.50;5073635;28;8841;-77
2021/06/09 01:32:17;;;;;;;;;17.00;16.50;;;;;19.40;85.00;100639.09;5074489;28;8849;-77
2021/06/09 01:35:13;;;;;;;;;19.50;18.75;;;;;19.53;84.65;100629.13;5059119;28;8818;-77
2021/06/09 01:37:41;;;;;;;;;15.00;15.00;;;;;19.50;85.03;100623.50;5073672;28;8898;-77
2021/06/09 01:40:37;;;;;;;;;15.50;15.50;;;;;19.64;84.56;100632.81;5072460;28;8834;-77
2021/06/09 01:43:34;;;;;;;;;13.75;13.75;;;;;19.91;84.38;100627.69;5072405;28;8837;-77
2021/06/09 01:46:29;;;;;;;;;20.00;20.00;;;;;19.58;84.71;100627.97;5072547;28;8833;-77
2021/06/09 01:49:25;;;;;;;;;20.75;20.75;;;;;19.47;84.81;100624.28;5068639;28;8962;-77
2021/06/09 01:52:21;;;;;;;;;18.50;18.00;;;;;19.44;86.37;100634.28;5053078;28;8933;-77
2021/06/09 01:55:22;;;;;;;;;18.25;17.75;;;;;19.21;86.54;100639.34;5054379;28;8861;-77
2021/06/09 01:58:18;;;;;;;;;13.00;13.00;;;;;19.59;86.32;100632.38;5053330;28;9608;-77
2021/06/09 02:01:15;;;;;;;;;13.75;13.75;;;;;19.48;85.69;100635.13;5052941;28;8851;-77
2021/06/09 02:04:12;;;;;;;;;13.75;13.75;;;;;19.78;84.93;100632.06;5051493;28;8830;-77
2021/06/09 02:07:08;;;;;;;;;17.75;17.50;;;;;19.37;85.23;100637.06;5072362;28;8830;-77
2021/06/09 02:10:10;;;;;;;;;17.75;17.75;;;;;18.80;86.78;100645.88;5072046;28;8852;-77
2021/06/09 02:13:15;;;;;;;;;14.33;14.33;;;;;19.11;87.50;100652.13;5058714;28;8875;-77
2021/06/09 02:16:12;;;;;;;;;17.25;16.50;;;;;18.78;87.43;100650.25;5071889;28;9583;-77
2021/06/09 02:19:09;;;;;;;;;15.25;15.25;;;;;18.82;88.67;100649.09;5069239;28;8822;-77
2021/06/09 02:22:05;;;;;;;;;15.75;15.75;;;;;19.00;88.38;100646.41;5026340;28;8923;-77
2021/06/09 02:25:00;;;;;;;;;17.50;15.25;;;;;18.76;88.19;100649.84;5056575;28;8836;-77
2021/06/09 02:27:57;;;;;;;;;13.75;13.25;;;;;18.53;89.64;100650.00;5072703;28;8844;-77
2021/06/09 02:30:52;;;;;;;;;16.50;15.50;;;;;18.80;88.82;100659.09;5070993;28;8831;-77
2021/06/09 02:33:48;;;;;;;;;16.00;15.25;;;;;19.11;87.77;100657.72;5071088;28;9562;-77
2021/06/09 02:36:44;;;;;;;;;14.75;14.75;;;;;19.28;86.17;100661.84;5064809;28;9611;-77
2021/06/09 02:39:40;;;;;;;;;14.75;14.75;;;;;19.04;86.94;100663.28;5076737;28;8913;-77
2021/06/09 02:42:37;;;;;;;;;13.25;13.25;;;;;18.82;88.42;100656.69;5075077;28;9604;-77
2021/06/09 02:45:33;;;;;;;;;16.00;16.00;;;;;18.77;88.44;100666.25;5076441;28;9670;-77
2021/06/09 02:48:31;;;;;;;;;17.75;17.50;;;;;18.55;89.19;100651.22;5076548;28;8998;-77
2021/06/09 02:51:34;;;;;;;;;16.25;14.75;;;;;18.37;89.53;100661.44;5036607;28;8938;-77
2021/06/09 02:54:43;;;;;;;;;16.75;16.25;;;;;18.29;90.17;100662.56;5047092;28;8844;-77
2021/06/09 02:57:47;;;;;;;;;16.00;14.75;;;;;18.15;91.01;100668.81;5077031;28;8836;-77
2021/06/09 03:01:06;;;;;;;;;18.75;18.75;;;;;18.25;91.50;100675.75;5067594;28;8928;-77
2021/06/09 03:04:15;;;;;;;;;15.00;14.75;;;;;18.38;91.74;100679.06;5036035;28;8914;-77
2021/06/09 03:07:23;;;;;;;;;19.25;19.25;;;;;18.16;92.30;100667.63;5036145;28;8879;-76
2021/06/09 03:10:26;;;;;;;;;16.25;16.25;;;;;18.16;92.25;100670.41;5036096;28;8868;-77
2021/06/09 03:13:51;;;;;;;;;13.50;13.50;;;;;18.57;91.99;100671.25;5059403;28;8853;-76
2021/06/09 03:16:53;;;;;;;;;14.25;14.25;;;;;18.62;90.49;100667.28;5028009;28;8867;-77
2021/06/09 03:20:01;;;;;;;;;14.50;13.75;;;;;18.32;91.22;100673.78;5036040;28;8869;-76
2021/06/09 03:23:11;;;;;;;;;15.00;13.75;;;;;18.22;91.24;100670.88;5035765;28;8857;-76
2021/06/09 03:26:14;;;;;;;;;19.00;19.00;;;;;18.24;92.21;100672.09;5075866;28;8844;-76
2021/06/09 03:29:33;;;;;;;;;23.00;23.00;;;;;18.08;92.87;100671.53;5075500;28;8840;-75
2021/06/09 03:32:35;;;;;;;;;22.25;21.75;;;;;18.36;92.57;100673.03;5075640;28;9585;-76
2021/06/09 03:35:37;;;;;;;;;13.25;13.25;;;;;18.39;92.27;100667.47;5075556;28;8858;-76
2021/06/09 03:38:51;;;;;;;;;22.25;22.00;;;;;18.31;92.65;100663.78;5073938;28;8909;-77
2021/06/09 03:41:58;;;;;;;;;20.25;18.75;;;;;18.30;93.36;100664.97;5067760;28;8878;-76
2021/06/09 03:44:56;;;;;;;;;19.25;19.25;;;;;18.35;92.80;100669.44;5068317;28;9630;-76
2021/06/09 03:47:55;;;;;;;;;19.50;19.50;;;;;18.44;92.52;100671.91;5035298;28;8932;-77
2021/06/09 03:50:52;;;;;;;;;21.00;19.25;;;;;18.46;92.85;100669.53;5034707;28;8837;-77
2021/06/09 03:53:38;;;;;;;;;15.25;15.00;;;;;18.57;92.41;100671.25;5083960;28;8862;-77
2021/06/09 03:56:36;;;;;;;;;20.00;20.00;;;;;18.50;92.80;100671.19;5056993;28;8847;-77
2021/06/09 03:59:33;;;;;;;;;17.00;17.00;;;;;18.75;92.55;100677.03;5053942;28;8868;-78
2021/06/09 04:02:32;;;;;;;;;17.75;17.75;;;;;19.04;91.08;100674.47;5053928;28;8923;-77
2021/06/09 04:05:28;;;;;;;;;23.25;23.25;;;;;19.39;89.13;100671.09;5054970;28;8900;-77
2021/06/09 04:08:25;;;;;;;;;18.00;18.00;;;;;19.29;88.73;100669.03;5056677;28;8861;-77
2021/06/09 04:11:23;;;;;;;;;16.00;16.00;;;;;19.41;88.93;100671.53;5055489;28;8945;-77
2021/06/09 04:14:22;;;;;;;;;24.75;24.75;;;;;18.97;89.54;100671.63;5062532;28;8858;-77
2021/06/09 04:17:23;;;;;;;;;28.50;25.25;;;;;19.06;89.85;100670.09;5054014;28;8866;-77
2021/06/09 04:20:28;;;;;;;;;27.50;27.50;;;;;19.16;89.27;100676.97;5050647;28;8898;-77
2021/06/09 04:23:24;;;;;;;;;27.75;27.00;;;;;19.19;89.19;100675.41;5054484;28;8842;-77
2021/06/09 04:26:21;;;;;;;;;29.00;29.00;;;;;19.25;88.58;100676.66;5067282;28;8858;-76
2021/06/09 04:29:19;;;;;;;;;32.00;29.75;;;;;19.43;88.07;100677.56;5054654;28;8855;-77
2021/06/09 04:32:15;;;;;;;;;39.00;35.00;;;;;19.51;88.68;100681.22;5054418;28;9638;-76
2021/06/09 04:35:10;;;;;;;;;30.50;29.00;;;;;19.74;87.05;100672.53;5034558;28;8838;-77
2021/06/09 04:38:14;;;;;;;;;19.00;18.75;;;;;19.68;87.98;100677.72;5034330;28;8829;-76
2021/06/09 04:41:10;;;;;;;;;31.75;30.50;;;;;19.41;87.30;100677.94;5033798;28;8821;-77
2021/06/09 04:44:06;;;;;;;;;24.75;24.25;;;;;19.40;87.99;100684.75;5070229;28;8913;-77
2021/06/09 04:47:02;;;;;;;;;29.00;29.00;;;;;19.50;87.71;100669.19;5061809;28;8836;-77
2021/06/09 04:49:57;;;;;;;;;27.75;27.75;;;;;19.44;88.62;100676.34;5074409;28;8836;-77
2021/06/09 04:52:25;;;;;;;;;27.25;26.50;;;;;19.32;89.07;100685.06;5074311;28;8848;-77
2021/06/09 04:54:53;;;;;;;;;33.75;32.50;;;;;19.20;89.74;100686.22;5073282;28;8882;-78
2021/06/09 04:57:20;;;;;;;;;36.25;31.50;;;;;19.07;90.41;100682.09;5074247;28;8924;-77
2021/06/09 04:59:48;;;;;;;;;31.75;31.00;;;;;18.99;90.18;100684.03;5073830;28;8848;-77
2021/06/09 05:02:18;;;;;;;;;30.50;30.50;;;;;18.73;91.16;100685.03;5074366;28;8840;-77
2021/06/09 05:04:47;;;;;;;;;34.00;32.75;;;;;18.70;92.38;100693.41;5074239;28;8875;-77
2021/06/09 05:07:15;;;;;;;;;31.25;31.00;;;;;18.77;92.87;100690.66;5072825;28;8844;-77
2021/06/09 05:09:43;;;;;;;;;34.00;32.75;;;;;18.81;92.49;100686.72;5074214;28;8852;-78
2021/06/09 05:12:24;;;;;;;;;31.00;30.75;;;;;19.06;91.78;100692.50;5073042;28;8836;-78
2021/06/09 05:15:02;;;;;;;;;30.50;30.50;;;;;19.57;87.97;100694.50;5074071;28;8950;-78
2021/06/09 05:17:39;;;;;;;;;32.25;31.25;;;;;19.63;88.67;100692.94;5072905;28;9586;-79
2021/06/09 05:20:16;;;;;;;;;35.50;33.25;;;;;19.51;89.99;100684.81;5072889;28;8858;-78
2021/06/09 05:22:48;;;;;;;;;40.00;33.50;;;;;19.56;88.92;100687.25;5073657;28;8864;-78
2021/06/09 05:25:17;;;;;;;;;43.00;37.00;;;;;19.63;88.39;100694.91;5073865;28;8970;-78
2021/06/09 05:27:46;;;;;;;;;40.00;35.50;;;;;19.92;86.29;100693.06;5072408;28;8836;-78
2021/06/09 05:30:17;;;;;;;;;32.50;31.50;;;;;19.91;86.14;100694.25;5073606;28;8848;-78
2021/06/09 05:32:46;;;;;;;;;42.75;37.00;;;;;20.05;85.41;100690.72;5073583;28;8844;-79
2021/06/09 05:35:16;;;;;;;;;49.00;41.33;;;;;20.02;87.06;100695.13;5073513;28;8937;-79
2021/06/09 05:37:45;;;;;;;;;49.25;41.25;;;;;19.99;86.35;100693.88;5073839;28;9070;-78
2021/06/09 05:40:16;;;;;;;;;26.75;26.25;;;;;20.26;86.04;100705.63;5073849;28;8840;-78
2021/06/09 05:42:45;;;;;;;;;48.25;41.00;;;;;20.55;83.78;100700.13;5073828;28;8898;-78
2021/06/09 05:45:24;;;;;;;;;28.25;27.50;;;;;20.48;83.94;100692.47;5073528;28;8852;-78
2021/06/09 05:47:52;;;;;;;;;27.75;27.75;;;;;20.94;81.94;100688.09;5073687;28;8993;-78
2021/06/09 05:50:22;;;;;;;;;47.75;40.00;;;;;20.89;82.19;100694.13;5073349;28;8891;-79
2021/06/09 05:52:53;;;;;;;;;31.25;30.50;;;;;21.00;80.37;100692.91;5073197;28;8867;-78
2021/06/09 05:55:25;;;;;;;;;44.50;38.25;;;;;21.19;81.18;100696.53;5072506;28;8959;-78
2021/06/09 05:57:54;;;;;;;;;43.25;38.00;;;;;21.23;80.54;100694.50;5071781;28;8933;-78
2021/06/09 06:00:25;;;;;;;;;41.00;35.75;;;;;21.24;82.23;100687.66;5073027;28;9588;-78
2021/06/09 06:02:54;;;;;;;;;37.25;34.00;;;;;21.31;79.85;100682.06;5073164;28;8840;-79
2021/06/09 06:05:23;;;;;;;;;47.25;40.75;;;;;21.29;80.61;100687.28;5073258;28;8844;-78
2021/06/09 06:07:53;;;;;;;;;30.75;30.50;;;;;21.33;79.67;100688.09;5064416;28;8877;-79
2021/06/09 06:10:49;;;;;;;;;32.00;31.00;;;;;21.14;80.55;100688.47;5041832;28;9240;-79
2021/06/09 06:13:48;;;;;;;;;41.50;36.75;;;;;21.27;79.84;100686.88;5052424;28;8834;-78
2021/06/09 06:16:52;;;;;;;;;46.75;39.50;;;;;20.92;81.23;100696.91;5053262;28;8949;-77
2021/06/09 06:19:51;;;;;;;;;47.75;40.25;;;;;21.05;80.64;100697.31;5057182;28;8815;-77
2021/06/09 06:22:32;;;;;;;;;38.25;34.75;;;;;21.37;79.98;100695.31;5051327;28;8832;-79
2021/06/09 06:25:28;;;;;;;;;49.00;42.33;;;;;21.62;79.79;100706.53;5053370;28;8959;-78
2021/06/09 06:28:25;;;;;;;;;47.75;40.25;;;;;21.59;79.26;100709.34;5053336;28;9005;-78
2021/06/09 06:31:26;;;;;;;;;40.75;36.00;;;;;21.35;79.39;100705.38;5052582;28;8836;-78
2021/06/09 06:34:23;;;;;;;;;49.50;42.00;;;;;21.53;79.34;100699.69;5072183;28;8966;-77
2021/06/09 06:37:21;;;;;;;;;46.25;39.50;;;;;21.16;80.37;100703.72;5062264;28;8834;-78
2021/06/09 06:40:27;;;;;;;;;39.00;33.50;;;;;21.32;80.80;100706.19;5058014;28;8836;-78
2021/06/09 06:43:24;;;;;;;;;53.00;44.75;;;;;21.36;80.35;100704.16;5054619;28;8813;-77
2021/06/09 06:46:19;;;;;;;;;52.75;42.50;;;;;21.00;81.39;100712.56;5052583;28;8865;-78
2021/06/09 06:48:51;;;;;;;;;44.50;38.50;;;;;21.17;81.04;100716.63;5039323;28;8943;-78
2021/06/09 06:51:50;;;;;;;;;48.50;41.50;;;;;21.73;79.51;100716.94;5050892;28;8844;-78
2021/06/09 06:54:47;;;;;;;;;55.33;46.00;;;;;21.73;79.47;100714.13;5061290;28;8986;-78
2021/06/09 06:57:43;;;;;;;;;57.33;48.00;;;;;21.99;77.67;100710.81;5049641;28;9007;-78
2021/06/09 07:00:40;;;;;;;;;52.75;43.25;;;;;22.10;77.75;100708.78;5039409;28;9096;-79
2021/06/09 07:03:37;;;;;;;;;54.25;44.25;;;;;22.18;77.19;100706.75;5071356;28;8843;-78
2021/06/09 07:06:33;;;;;;;;;49.50;40.50;;;;;22.68;75.36;100720.53;5066700;28;8822;-78
2021/06/09 07:09:29;;;;;;;;;55.75;45.25;;;;;22.74;75.27;100707.59;5065419;28;8963;-77
2021/06/09 07:12:29;;;;;;;;;61.33;50.33;;;;;22.65;74.91;100707.28;5068055;28;8848;-75
2021/06/09 07:15:26;;;;;;;;;67.33;54.67;;;;;22.90;76.09;100712.75;5051890;28;8921;-76
2021/06/09 07:17:59;;;;;;;;;67.00;54.00;;;;;22.85;76.13;100710.34;5052586;28;9266;-76
2021/06/09 07:20:55;;;;;;;;;66.67;54.33;;;;;23.30;74.02;100708.38;5051540;28;9547;-76
2021/06/09 07:23:52;;;;;;;;;66.50;53.50;;;;;22.88;73.67;100712.38;5064522;28;9474;-77
2021/06/09 07:26:50;;;;;;;;;60.25;48.75;;;;;22.54;75.81;100703.72;5047633;28;9630;-78
2021/06/09 07:29:47;;;;;;;;;56.00;46.50;;;;;22.75;75.83;100700.75;5024073;28;8846;-78
2021/06/09 07:32:30;;;;;;;;;58.00;48.75;;;;;22.76;74.44;100708.78;5036516;28;9717;-78
2021/06/09 07:35:26;;;;;;;;;65.00;52.00;;;;;23.00;74.68;100709.88;5022098;28;8888;-76
2021/06/09 07:38:29;;;;;;;;;65.00;51.50;;;;;22.77;74.10;100709.59;5036048;28;8935;-79
2021/06/09 07:41:30;;;;;;;;;59.67;49.33;;;;;23.03;74.47;100716.69;5047583;28;9690;-76
2021/06/09 07:44:28;;;;;;;;;61.33;47.67;;;;;22.92;74.17;100711.13;5049431;28;8993;-77
2021/06/09 07:46:58;;;;;;;;;57.00;46.50;;;;;23.09;73.78;100708.59;5038277;28;8939;-78
2021/06/09 07:49:55;;;;;;;;;63.25;48.25;;;;;23.54;72.64;100709.34;5054454;28;8843;-76
2021/06/09 07:52:40;;;;;;;;;57.00;46.50;;;;;23.72;72.63;100709.19;5059565;28;8828;-76
2021/06/09 07:55:41;;;;;;;;;68.33;55.33;;;;;23.61;70.02;100700.03;5040431;28;8842;-77
2021/06/09 07:58:11;;;;;;;;;67.33;54.00;;;;;24.01;69.86;100704.81;5059836;28;9296;-76
2021/06/09 08:00:39;;;;;;;;;71.00;61.50;;;;;24.12;69.58;100705.47;5074475;28;9086;-76
2021/06/09 08:03:36;;;;;;;;;76.00;67.00;;;;;24.65;67.30;100700.31;5055370;28;9573;-76
2021/06/09 08:06:32;;;;;;;;;86.25;78.50;;;;;24.89;66.05;100704.78;5040633;28;10733;-76
2021/06/09 08:09:04;;;;;;;;;106.25;98.00;;;;;24.83;66.08;100706.47;5021152;28;10811;-76
2021/06/09 08:11:32;;;;;;;;;118.75;106.75;;;;;24.86;66.81;100697.16;5054410;28;12260;-75
2021/06/09 08:14:01;;;;;;;;;80.50;76.25;;;;;24.78;67.23;100695.69;5054800;28;11555;-75
2021/06/09 08:16:56;;;;;;;;;102.00;90.75;;;;;24.60;65.36;100695.13;5054624;28;10719;-76
2021/06/09 08:19:52;;;;;;;;;88.75;81.00;;;;;24.26;64.51;100700.84;5053684;28;10599;-76
2021/06/09 08:22:34;;;;;;;;;82.00;76.00;;;;;24.17;62.72;100715.50;5053865;28;10387;-75
2021/06/09 08:25:30;;;;;;;;;76.75;69.25;;;;;24.16;63.85;100698.97;5054161;28;10036;-75
2021/06/09 08:27:58;;;;;;;;;85.00;79.25;;;;;23.95;65.42;100700.84;5037007;28;9953;-76
2021/06/09 08:30:54;;;;;;;;;95.25;84.75;;;;;23.69;64.89;100702.34;5062458;28;10353;-75
2021/06/09 08:33:51;;;;;;;;;85.00;76.00;;;;;23.98;64.39;100710.50;5032699;28;10737;-76
2021/06/09 08:36:46;;;;;;;;;72.00;61.25;;;;;24.32;63.17;100702.00;5054737;28;10300;-76
2021/06/09 08:39:42;;;;;;;;;74.00;62.67;;;;;24.58;62.49;100698.41;5054475;28;10714;-76
2021/06/09 08:42:42;;;;;;;;;76.00;61.33;;;;;24.91;61.72;100710.00;5054875;28;9410;-76
2021/06/09 08:45:37;;;;;;;;;76.00;66.67;;;;;25.21;62.77;100701.44;5054630;28;9402;-76
2021/06/09 08:48:38;;;;;;;;;79.00;64.67;;;;;25.56;60.05;100702.03;5073086;28;9310;-76
2021/06/09 08:51:26;;;;;;;;;71.00;59.33;;;;;25.82;58.56;100696.69;5053435;28;9903;-75
2021/06/09 08:54:16;;;;;;;;;74.67;63.33;;;;;25.83;58.19;100695.44;5038878;28;9827;-77
2021/06/09 08:56:46;;;;;;;;;72.33;62.33;;;;;25.40;56.96;100684.94;5057542;28;8930;-77
2021/06/09 08:59:14;;;;;;;;;68.00;53.00;;;;;25.96;56.65;100682.22;5052567;28;9806;-76
2021/06/09 09:01:59;;;;;;;;;78.00;64.25;;;;;25.64;55.95;100672.34;5035384;28;9080;-76
2021/06/09 09:04:31;;;;;;;;;73.50;63.50;;;;;25.92;57.33;100678.69;5052766;28;10303;-74
2021/06/09 09:07:00;;;;;;;;;86.75;76.25;;;;;26.22;55.71;100678.41;5053251;28;9501;-75
2021/06/09 09:09:59;;;;;;;;;83.50;75.00;;;;;26.10;56.72;100678.31;5052623;28;9556;-75
2021/06/09 09:12:55;;;;;;;;;78.50;67.75;;;;;26.60;56.07;100675.16;5040297;28;9539;-75
2021/06/09 09:15:53;;;;;;;;;76.00;68.00;;;;;27.15;56.02;100674.22;5032647;28;9513;-75
2021/06/09 09:19:03;;;;;;;;;65.25;52.25;;;;;26.78;54.78;100667.03;5032583;28;9081;-75
2021/06/09 09:21:59;;;;;;;;;75.00;63.75;;;;;26.93;56.13;100661.78;5032498;28;8842;-76
2021/06/09 09:24:55;;;;;;;;;66.25;52.00;;;;;27.20;52.19;100663.53;5032160;28;8981;-77
2021/06/09 09:27:53;;;;;;;;;62.75;49.00;;;;;27.31;52.03;100659.19;5032361;28;8872;-76
2021/06/09 09:30:48;;;;;;;;;71.00;59.75;;;;;27.71;52.68;100650.41;5032427;28;8822;-76
2021/06/09 09:33:45;;;;;;;;;63.25;51.00;;;;;27.65;50.10;100649.31;5033489;28;8858;-77
2021/06/09 09:36:42;;;;;;;;;63.50;50.75;;;;;27.92;50.01;100655.47;5032279;28;8850;-77
2021/06/09 09:39:41;;;;;;;;;54.00;44.25;;;;;28.17;49.14;100653.91;5032205;28;8856;-77
2021/06/09 09:42:34;;;;;;;;;31.40;30.00;;;;;28.10;46.06;100651.28;5018069;28;8846;-77
2021/06/09 09:45:34;;;;;;;;;43.60;37.00;;;;;28.25;45.53;100646.75;5031827;28;8898;-76
2021/06/09 09:48:29;;;;;;;;;14.60;14.60;;;;;28.14;42.84;100638.56;5031772;28;8929;-75
2021/06/09 09:51:26;;;;;;;;;11.40;11.00;;;;;28.69;44.97;100638.47;5048221;28;8845;-75
2021/06/09 09:54:24;;;;;;;;;10.80;10.80;;;;;28.82;43.02;100633.53;5051612;28;9647;-75
2021/06/09 09:57:19;;;;;;;;;10.00;8.20;;;;;28.32;42.10;100640.88;5042704;28;8987;-75
2021/06/09 10:00:31;;;;;;;;;11.40;11.40;;;;;28.11;40.42;100639.44;5043576;28;8842;-75
2021/06/09 10:03:36;;;;;;;;;4.00;4.00;;;;;28.08;40.74;100634.69;5012094;28;8840;-76
2021/06/09 10:06:45;;;;;;;;;8.80;8.80;;;;;27.21;43.32;100626.19;5012251;28;8854;-75
2021/06/09 10:09:44;;;;;;;;;23.20;22.00;;;;;27.44;45.16;100620.25;4999236;28;8863;-75
2021/06/09 10:12:26;;;;;;;;;7.00;7.00;;;;;27.60;43.66;100616.56;5020826;28;8838;-75
2021/06/09 10:15:33;;;;;;;;;11.20;11.20;;;;;28.23;41.23;100618.78;5018467;28;8850;-75
2021/06/09 10:18:29;;;;;;;;;13.20;13.20;;;;;28.40;43.07;100610.94;5032162;28;8818;-74
2021/06/09 10:21:25;;;;;;;;;9.00;9.00;;;;;28.83;42.43;100608.69;5031576;28;8841;-74
2021/06/09 10:24:23;;;;;;;;;8.60;8.60;;;;;28.70;40.63;100609.53;5031632;28;8876;-74
2021/06/09 10:27:31;;;;;;;;;8.20;8.20;;;;;28.25;39.48;100612.63;5031783;28;8838;-77
2021/06/09 10:30:28;;;;;;;;;11.20;11.00;;;;;28.70;39.93;100603.84;5031687;28;8888;-75
2021/06/09 10:33:24;;;;;;;;;9.00;9.00;;;;;29.03;39.84;100606.41;5031303;28;8854;-75
2021/06/09 10:36:20;;;;;;;;;12.40;12.00;;;;;28.85;39.30;100604.16;5029950;28;8850;-76
2021/06/09 10:39:19;;;;;;;;;11.20;11.20;;;;;28.63;40.88;100606.16;5031554;28;8842;-76
2021/06/09 10:42:18;;;;;;;;;14.20;14.20;;;;;28.79;39.83;100614.53;5037798;28;8875;-75
2021/06/09 10:45:15;;;;;;;;;15.00;15.00;;;;;28.28;39.84;100620.22;5051711;28;8821;-76
2021/06/09 10:48:14;;;;;;;;;15.20;15.20;;;;;28.39;42.73;100606.50;5051666;28;8969;-75
2021/06/09 10:51:12;;;;;;;;;14.20;14.20;;;;;28.24;41.54;100603.28;5051024;28;8877;-75
2021/06/09 10:54:12;;;;;;;;;14.80;14.40;;;;;28.24;40.61;100588.28;5051457;28;8830;-76
2021/06/09 10:57:09;;;;;;;;;11.80;11.80;;;;;28.77;41.97;100599.97;5051161;28;8942;-77
2021/06/09 11:00:09;;;;;;;;;19.80;19.80;;;;;28.77;42.50;100599.97;5034008;28;8844;-75
2021/06/09 11:03:05;;;;;;;;;38.00;32.80;;;;;29.30;42.95;100591.63;5056064;28;9001;-75
2021/06/09 11:05:51;;;;;;;;;11.60;11.60;;;;;29.75;43.12;100593.22;5062798;28;8867;-75
2021/06/09 11:08:19;;;;;;;;;12.00;11.20;;;;;29.98;40.46;100592.75;5041265;28;8842;-76
2021/06/09 11:11:19;;;;;;;;;24.80;23.20;;;;;30.38;41.18;100586.28;5055667;28;8830;-76
2021/06/09 11:14:26;;;;;;;;;21.80;21.80;;;;;30.23;41.15;100588.91;5068285;28;8835;-77
2021/06/09 11:17:38;;;;;;;;;11.20;11.20;;;;;30.55;40.05;100578.22;5068636;28;8832;-75
2021/06/09 11:20:37;;;;;;;;;10.40;10.40;;;;;30.83;39.37;100584.81;5041670;28;9660;-77
2021/06/09 11:23:37;;;;;;;;;34.40;32.00;;;;;30.91;39.92;100580.38;5041262;28;8862;-77
2021/06/09 11:26:33;;;;;;;;;22.40;22.40;;;;;31.10;40.03;100581.19;5029957;28;8866;-77
2021/06/09 11:29:29;;;;;;;;;13.00;13.00;;;;;31.57;37.94;100583.56;5054465;28;8832;-78
2021/06/09 11:32:25;;;;;;;;;27.20;27.20;;;;;30.50;38.82;100570.28;5040262;28;8946;-76
2021/06/09 11:35:41;;;;;;;;;11.60;11.40;;;;;30.56;39.26;100572.03;5038259;28;8838;-79
2021/06/09 11:38:39;;;;;;;;;24.20;24.20;;;;;30.73;38.89;100567.66;5050894;28;8968;-77
2021/06/09 11:41:44;;;;;;;;;18.60;17.40;;;;;30.83;37.85;100562.00;5047754;28;8867;-75
2021/06/09 11:44:42;;;;;;;;;16.60;16.60;;;;;30.98;38.34;100552.31;5053031;28;9699;-75
2021/06/09 11:47:24;;;;;;;;;16.40;16.00;;;;;30.77;40.35;100549.59;5054316;28;8868;-77
2021/06/09 11:50:14;;;;;;;;;13.80;13.20;;;;;30.62;39.47;100541.63;5036593;28;9570;-76
2021/06/09 11:53:14;;;;;;;;;16.20;16.00;;;;;30.72;40.94;100548.94;5049406;28;8963;-75
2021/06/09 11:56:14;;;;;;;;;9.60;9.60;;;;;30.54;41.46;100550.97;5051596;28;8858;-76
2021/06/09 11:59:30;;;;;;;;;16.20;16.20;;;;;30.16;40.24;100541.50;5052338;28;8845;-76
2021/06/09 12:02:01;;;;;;;;;9.60;9.60;;;;;30.40;40.07;100546.66;5051451;28;8853;-76
2021/06/09 12:04:36;;;;;;;;;8.40;8.40;;;;;30.46;39.40;100544.75;5053643;28;8865;-75
2021/06/09 12:07:07;;;;;;;;;8.40;8.40;;;;;30.48;38.26;100536.53;5028394;28;8846;-77
2021/06/09 12:10:02;;;;;;;;;19.60;18.40;;;;;29.72;40.97;100537.94;5049667;28;8817;-75
2021/06/09 12:12:58;;;;;;;;;13.60;13.60;;;;;29.36;41.06;100541.34;5024575;28;8841;-76
2021/06/09 12:15:30;;;;;;;;;11.80;11.00;;;;;29.06;42.70;100543.66;5018851;28;8867;-76
2021/06/09 12:17:59;;;;;;;;;9.60;9.60;;;;;29.07;42.29;100545.25;5033434;28;8938;-75
2021/06/09 12:21:10;;;;;;;;;10.80;10.00;;;;;28.86;42.25;100539.50;5052179;28;8842;-75
2021/06/09 12:23:57;;;;;;;;;10.60;10.60;;;;;28.88;42.87;100534.13;5051250;28;9645;-75
2021/06/09 12:26:30;;;;;;;;;9.20;9.20;;;;;28.90;43.02;100538.13;5028647;28;8841;-75
2021/06/09 12:29:04;;;;;;;;;6.60;6.60;;;;;28.52;43.75;100541.88;5037168;28;10005;-75
2021/06/09 12:31:37;;;;;;;;;7.60;7.60;;;;;28.49;43.80;100539.94;5036337;28;8846;-75
2021/06/09 12:34:06;;;;;;;;;9.00;9.00;;;;;28.38;43.75;100539.50;5035744;28;8845;-75
2021/06/09 12:36:57;;;;;;;;;13.60;13.60;;;;;28.32;44.18;100541.34;5052933;28;8834;-75
2021/06/09 12:39:58;;;;;;;;;10.00;8.40;;;;;28.37;44.59;100545.63;5053522;28;8891;-75
2021/06/09 12:42:58;;;;;;;;;6.00;6.00;;;;;28.23;44.12;100555.44;5050623;28;8873;-75
2021/06/09 12:45:54;;;;;;;;;9.40;9.40;;;;;27.80;44.33;100562.44;5052397;28;8833;-74
2021/06/09 12:48:22;;;;;;;;;6.00;6.00;;;;;27.25;46.31;100567.28;5053024;28;8860;-75
2021/06/09 12:50:57;;;;;;;;;10.60;10.60;;;;;26.85;48.66;100563.91;5053275;28;8869;-75
2021/06/09 12:53:27;;;;;;;;;8.60;8.60;;;;;26.92;49.85;100568.59;5051424;28;8841;-75
2021/06/09 12:56:23;;;;;;;;;5.40;5.40;;;;;26.15;51.76;100555.91;5050824;28;8854;-75
2021/06/09 12:58:52;;;;;;;;;8.00;8.00;;;;;26.31;51.83;100556.72;5036429;28;8892;-74
2021/06/09 13:01:20;;;;;;;;;7.80;7.80;;;;;26.43;51.10;100560.13;5055895;28;8946;-74
2021/06/09 13:03:57;;;;;;;;;5.20;5.20;;;;;26.27;50.92;100556.00;5052736;28;8854;-75
2021/06/09 13:06:25;;;;;;;;;8.60;8.60;;;;;26.16;52.33;100549.03;5052707;28;8862;-75
2021/06/09 13:09:21;;;;;;;;;7.20;7.20;;;;;26.01;52.82;100540.06;5051409;28;9620;-74
2021/06/09 13:11:49;;;;;;;;;5.20;5.20;;;;;25.99;52.81;100542.50;5052472;28;8881;-75